createdAt,value
2022-11-12T00:00:16.446Z,100.00
2022-11-12T00:06:40.284Z,100.00
2022-11-12T00:09:58.191Z,100.00
2022-11-12T00:19:24.928Z,100.00
2022-11-12T00:22:18.878Z,100.00
2022-11-12T00:37:41.297Z,100.00
2022-11-12T00:40:30.547Z,100.00
2022-11-12T00:43:16.062Z,100.00
2022-11-12T00:46:01.980Z,100.00
2022-11-12T01:10:51.553Z,100.00
2022-11-12T01:14:05.087Z,100.00
2022-11-12T01:34:26.386Z,100.00
2022-11-12T01:37:11.964Z,100.00
2022-11-12T01:40:00.053Z,100.00
2022-11-12T01:43:04.320Z,100.00
2022-11-12T01:49:57.181Z,100.00
2022-11-12T02:03:22.108Z,100.00
2022-11-12T02:06:30.247Z,100.00
2022-11-12T02:37:47.298Z,100.00
2022-11-12T02:44:25.336Z,100.00
2022-11-12T02:47:34.464Z,100.00
2022-11-12T03:07:44.877Z,100.00
2022-11-12T03:11:31.610Z,100.00
2022-11-12T03:27:07.063Z,100.00
2022-11-12T03:30:36.560Z,100.00
2022-11-12T03:40:50.072Z,100.00
2022-11-12T03:46:44.369Z,100.00
2022-11-12T04:10:01.311Z,100.00
2022-11-12T04:13:19.006Z,100.00
2022-11-12T04:33:25.995Z,100.00
2022-11-12T04:36:11.846Z,100.00
2022-11-12T04:38:57.932Z,100.00
2022-11-12T05:02:22.781Z,100.00
2022-11-12T05:08:19.353Z,100.00
2022-11-12T05:11:08.725Z,100.00
2022-11-12T05:13:57.119Z,100.00
2022-11-12T05:16:42.794Z,100.00
2022-11-12T05:19:28.678Z,100.00
2022-11-12T05:22:40.366Z,100.00
2022-11-12T05:25:22.921Z,100.00
2022-11-12T05:46:04.749Z,100.00
2022-11-12T05:52:16.819Z,100.00
2022-11-12T05:58:29.029Z,100.00
2022-11-12T06:01:16.893Z,100.00
2022-11-12T06:10:21.957Z,100.00
2022-11-12T06:13:08.300Z,100.00
2022-11-12T06:16:04.085Z,100.00
2022-11-12T06:37:22.717Z,100.00
2022-11-12T06:47:50.867Z,100.00
2022-11-12T07:05:55.367Z,100.00
2022-11-12T07:09:04.948Z,100.00
2022-11-12T07:12:20.651Z,100.00
2022-11-12T07:36:21.677Z,100.00
2022-11-12T08:35:46.515Z,100.00
2022-11-12T08:39:37.473Z,100.00
2022-11-12T08:56:54.319Z,93.37
2022-11-12T08:59:39.582Z,79.47
2022-11-12T09:02:25.160Z,73.67
2022-11-12T09:05:10.477Z,70.00
2022-11-12T09:08:11.528Z,60.18
2022-11-12T09:10:58.028Z,59.72
2022-11-12T09:13:43.870Z,56.53
2022-11-12T09:16:29.363Z,59.18
2022-11-12T09:19:14.848Z,62.75
2022-11-12T09:22:00.356Z,66.83
2022-11-12T09:24:45.683Z,67.81
2022-11-12T09:27:31.321Z,70.71
2022-11-12T09:30:17.867Z,71.90
2022-11-12T09:33:03.083Z,73.59
2022-11-12T09:35:49.747Z,73.88
2022-11-12T09:38:34.801Z,77.33
2022-11-12T09:41:27.291Z,77.58
2022-11-12T09:44:18.479Z,73.66
2022-11-12T09:47:09.760Z,72.33
2022-11-12T09:50:12.385Z,71.45
2022-11-12T09:53:44.247Z,72.40
2022-11-12T09:56:30.258Z,69.01
2022-11-12T09:59:16.480Z,67.90
2022-11-12T10:02:10.617Z,73.48
2022-11-12T10:05:25.012Z,74.75
2022-11-12T10:08:32.204Z,74.58
2022-11-12T10:12:07.276Z,75.04
2022-11-12T10:15:30.253Z,76.79
2022-11-12T10:18:36.001Z,72.26
2022-11-12T10:21:27.399Z,69.63
2022-11-12T10:24:12.878Z,66.77
2022-11-12T10:26:59.534Z,67.22
2022-11-12T10:30:00.380Z,70.40
2022-11-12T10:32:46.942Z,70.29
2022-11-12T10:35:32.363Z,72.27
2022-11-12T10:38:26.021Z,65.63
2022-11-12T10:41:31.006Z,63.87
2022-11-12T10:44:26.075Z,64.23
2022-11-12T10:47:21.012Z,60.75
2022-11-12T10:50:16.184Z,58.93
2022-11-12T10:53:07.278Z,50.84
2022-11-12T10:55:58.760Z,57.60
2022-11-12T10:58:44.019Z,49.32
2022-11-12T11:01:35.711Z,100.00
2022-11-12T11:04:24.400Z,100.00
2022-11-12T11:07:23.040Z,100.00
2022-11-12T11:10:23.396Z,100.00
2022-11-12T11:13:29.017Z,100.00
2022-11-12T11:16:50.846Z,100.00
2022-11-12T11:19:39.892Z,100.00
2022-11-12T11:22:37.252Z,100.00
2022-11-12T11:25:28.025Z,100.00
2022-11-12T11:28:36.362Z,100.00
2022-11-12T11:31:50.636Z,48.61
2022-11-12T11:34:42.155Z,47.82
2022-11-12T11:37:29.790Z,50.33
2022-11-12T11:40:21.720Z,50.06
2022-11-12T11:43:31.069Z,51.16
2022-11-12T11:46:27.308Z,51.34
2022-11-12T11:49:23.672Z,54.49
2022-11-12T11:52:34.750Z,54.97
2022-11-12T11:55:42.967Z,55.30
2022-11-12T11:58:53.323Z,56.81
2022-11-12T12:02:04.536Z,59.05
2022-11-12T12:04:56.935Z,59.54
2022-11-12T12:07:48.166Z,58.16
2022-11-12T12:14:26.664Z,58.97
2022-11-12T12:17:29.227Z,63.28
2022-11-12T12:20:27.839Z,60.11
2022-11-12T12:23:13.437Z,62.66
2022-11-12T12:26:01.039Z,65.87
2022-11-12T12:29:07.132Z,60.94
2022-11-12T12:31:59.711Z,62.73
2022-11-12T12:34:56.341Z,62.96
2022-11-12T12:38:26.394Z,64.84
2022-11-12T12:41:14.789Z,66.86
2022-11-12T12:44:06.127Z,64.78
2022-11-12T12:46:58.476Z,65.89
2022-11-12T12:49:45.038Z,63.43
2022-11-12T12:52:30.472Z,64.78
2022-11-12T12:55:38.412Z,65.43
2022-11-12T12:58:30.141Z,69.00
2022-11-12T13:01:22.290Z,69.46
2022-11-12T13:04:11.000Z,71.12
2022-11-12T13:06:56.355Z,72.32
2022-11-12T13:09:41.620Z,69.05
2022-11-12T13:13:02.408Z,70.24
2022-11-12T13:15:56.032Z,71.58
2022-11-12T13:18:41.486Z,70.80
2022-11-12T13:21:27.607Z,70.95
2022-11-12T13:24:14.388Z,69.84
2022-11-12T13:27:01.036Z,73.26
2022-11-12T13:29:47.938Z,70.24
2022-11-12T13:32:54.417Z,72.31
2022-11-12T13:35:40.771Z,75.24
2022-11-12T13:38:26.692Z,74.96
2022-11-12T13:41:39.991Z,75.77
2022-11-12T13:44:27.894Z,77.22
2022-11-12T13:47:18.615Z,79.55
2022-11-12T13:50:08.839Z,77.96
2022-11-12T13:53:59.554Z,80.56
2022-11-12T13:56:44.719Z,79.06
2022-11-12T13:59:30.138Z,77.96
2022-11-12T14:02:22.728Z,83.14
2022-11-12T14:05:24.310Z,82.54
2022-11-12T14:08:21.443Z,83.93
2022-11-12T14:11:28.327Z,83.65
2022-11-12T14:14:16.440Z,86.21
2022-11-12T14:17:33.590Z,85.73
2022-11-12T14:20:39.727Z,86.45
2022-11-12T14:23:26.329Z,86.26
2022-11-12T14:26:13.197Z,87.56
2022-11-12T14:28:59.280Z,86.70
2022-11-12T14:31:45.155Z,87.42
2022-11-12T14:34:34.742Z,88.55
2022-11-12T14:37:41.635Z,91.01
2022-11-12T14:40:30.461Z,93.07
2022-11-12T14:43:27.373Z,92.80
2022-11-12T14:46:37.248Z,92.16
2022-11-12T14:49:44.359Z,93.26
2022-11-12T14:52:40.758Z,93.46
2022-11-12T14:55:32.362Z,94.41
2022-11-12T14:58:19.539Z,96.60
2022-11-12T15:01:59.356Z,97.16
2022-11-12T15:04:26.125Z,97.45
2022-11-12T15:07:30.781Z,98.96
2022-11-12T15:10:37.914Z,99.96
2022-11-12T15:13:27.054Z,100.00
2022-11-12T15:16:19.477Z,100.00
2022-11-12T15:19:08.081Z,100.00
2022-11-12T15:21:54.997Z,100.00
2022-11-12T15:24:43.875Z,100.00
2022-11-12T15:27:37.525Z,100.00
2022-11-12T15:30:24.095Z,100.00
2022-11-12T15:33:12.256Z,100.00
2022-11-12T15:35:59.833Z,100.00
2022-11-12T15:38:50.652Z,100.00
2022-11-12T15:41:35.692Z,100.00
2022-11-12T15:44:20.727Z,100.00
2022-11-12T15:47:06.019Z,100.00
2022-11-12T15:49:55.257Z,100.00
2022-11-12T15:52:41.161Z,100.00
2022-11-12T15:55:26.586Z,100.00
2022-11-12T15:58:32.928Z,100.00
2022-11-12T16:01:18.172Z,100.00
2022-11-12T16:04:03.386Z,100.00
2022-11-12T16:13:32.208Z,100.00
2022-11-12T16:20:23.017Z,100.00
2022-11-12T16:23:10.300Z,100.00
2022-11-12T16:41:22.548Z,100.00
2022-11-12T16:44:12.607Z,100.00
2022-11-12T16:51:11.392Z,100.00
2022-11-12T16:54:21.216Z,100.00
2022-11-12T17:33:04.045Z,100.00
2022-11-12T17:37:07.355Z,100.00
2022-11-12T18:50:51.122Z,100.00
